sensor_id;sensor_type;location;lat;lon;timestamp;P1;durP1;ratioP1;P2;durP2;ratioP2
47337;SDS011;33069;51.970;5.892;2023-04-24T00:00:08;13.35;;;11.35;;
47337;SDS011;33069;51.970;5.892;2023-04-24T00:02:34;14.20;;;11.98;;
47337;SDS011;33069;51.970;5.892;2023-04-24T00:05:04;15.20;;;11.68;;
47337;SDS011;33069;51.970;5.892;2023-04-24T00:07:30;14.07;;;10.80;;
47337;SDS011;33069;51.970;5.892;2023-04-24T00:09:56;14.18;;;12.70;;
47337;SDS011;33069;51.970;5.892;2023-04-24T00:12:22;14.07;;;12.68;;
47337;SDS011;33069;51.970;5.892;2023-04-24T00:17:45;12.73;;;11.38;;
47337;SDS011;33069;51.970;5.892;2023-04-24T00:20:11;15.25;;;11.55;;
47337;SDS011;33069;51.970;5.892;2023-04-24T00:22:36;14.63;;;12.27;;
47337;SDS011;33069;51.970;5.892;2023-04-24T00:25:02;10.80;;;8.60;;
47337;SDS011;33069;51.970;5.892;2023-04-24T00:27:28;11.10;;;8.52;;
47337;SDS011;33069;51.970;5.892;2023-04-24T00:29:54;6.45;;;5.68;;
47337;SDS011;33069;51.970;5.892;2023-04-24T00:32:19;5.18;;;4.32;;
47337;SDS011;33069;51.970;5.892;2023-04-24T00:34:45;7.88;;;6.38;;
47337;SDS011;33069;51.970;5.892;2023-04-24T00:37:11;8.13;;;6.18;;
47337;SDS011;33069;51.970;5.892;2023-04-24T00:39:36;5.90;;;5.30;;
47337;SDS011;33069;51.970;5.892;2023-04-24T00:42:02;5.72;;;4.57;;
47337;SDS011;33069;51.970;5.892;2023-04-24T00:44:28;6.50;;;5.90;;
47337;SDS011;33069;51.970;5.892;2023-04-24T00:46:54;5.93;;;5.10;;
47337;SDS011;33069;51.970;5.892;2023-04-24T00:49:23;6.25;;;5.53;;
47337;SDS011;33069;51.970;5.892;2023-04-24T00:51:49;6.25;;;5.65;;
47337;SDS011;33069;51.970;5.892;2023-04-24T00:54:16;10.23;;;6.88;;
47337;SDS011;33069;51.970;5.892;2023-04-24T00:56:42;10.15;;;7.65;;
47337;SDS011;33069;51.970;5.892;2023-04-24T00:59:09;12.02;;;8.70;;
47337;SDS011;33069;51.970;5.892;2023-04-24T01:01:36;13.95;;;10.07;;
47337;SDS011;33069;51.970;5.892;2023-04-24T01:04:07;11.70;;;9.23;;
47337;SDS011;33069;51.970;5.892;2023-04-24T01:06:34;16.92;;;12.88;;
47337;SDS011;33069;51.970;5.892;2023-04-24T01:09:03;16.75;;;13.63;;
47337;SDS011;33069;51.970;5.892;2023-04-24T01:11:29;20.83;;;15.70;;
47337;SDS011;33069;51.970;5.892;2023-04-24T01:13:55;25.65;;;18.98;;
47337;SDS011;33069;51.970;5.892;2023-04-24T01:16:22;32.70;;;23.25;;
47337;SDS011;33069;51.970;5.892;2023-04-24T01:18:47;30.65;;;20.35;;
47337;SDS011;33069;51.970;5.892;2023-04-24T01:21:14;31.65;;;22.15;;
47337;SDS011;33069;51.970;5.892;2023-04-24T01:23:44;37.97;;;24.13;;
47337;SDS011;33069;51.970;5.892;2023-04-24T01:26:10;37.58;;;27.45;;
47337;SDS011;33069;51.970;5.892;2023-04-24T01:28:37;32.55;;;22.42;;
47337;SDS011;33069;51.970;5.892;2023-04-24T01:31:03;40.45;;;26.42;;
47337;SDS011;33069;51.970;5.892;2023-04-24T01:33:29;38.38;;;25.98;;
47337;SDS011;33069;51.970;5.892;2023-04-24T01:35:54;41.40;;;28.70;;
47337;SDS011;33069;51.970;5.892;2023-04-24T01:38:20;47.88;;;34.15;;
47337;SDS011;33069;51.970;5.892;2023-04-24T01:40:46;43.17;;;29.42;;
47337;SDS011;33069;51.970;5.892;2023-04-24T01:43:12;43.55;;;30.15;;
47337;SDS011;33069;51.970;5.892;2023-04-24T01:45:38;39.17;;;28.13;;
47337;SDS011;33069;51.970;5.892;2023-04-24T01:48:04;37.45;;;26.25;;
47337;SDS011;33069;51.970;5.892;2023-04-24T01:50:30;35.22;;;24.90;;
47337;SDS011;33069;51.970;5.892;2023-04-24T01:52:56;50.22;;;32.78;;
47337;SDS011;33069;51.970;5.892;2023-04-24T01:55:21;64.65;;;38.35;;
47337;SDS011;33069;51.970;5.892;2023-04-24T01:57:47;45.58;;;28.70;;
47337;SDS011;33069;51.970;5.892;2023-04-24T02:00:13;47.22;;;28.95;;
47337;SDS011;33069;51.970;5.892;2023-04-24T02:05:24;60.72;;;34.00;;
47337;SDS011;33069;51.970;5.892;2023-04-24T02:07:49;49.13;;;33.45;;
47337;SDS011;33069;51.970;5.892;2023-04-24T02:10:15;52.38;;;35.90;;
47337;SDS011;33069;51.970;5.892;2023-04-24T02:12:41;57.20;;;40.75;;
47337;SDS011;33069;51.970;5.892;2023-04-24T02:15:07;55.58;;;39.10;;
47337;SDS011;33069;51.970;5.892;2023-04-24T02:17:32;51.78;;;36.45;;
47337;SDS011;33069;51.970;5.892;2023-04-24T02:19:58;48.13;;;31.55;;
47337;SDS011;33069;51.970;5.892;2023-04-24T02:22:24;52.72;;;36.22;;
47337;SDS011;33069;51.970;5.892;2023-04-24T02:24:49;51.47;;;36.38;;
47337;SDS011;33069;51.970;5.892;2023-04-24T02:27:15;61.47;;;39.75;;
47337;SDS011;33069;51.970;5.892;2023-04-24T02:29:41;58.42;;;37.50;;
47337;SDS011;33069;51.970;5.892;2023-04-24T02:32:06;58.13;;;39.05;;
47337;SDS011;33069;51.970;5.892;2023-04-24T02:34:36;57.65;;;40.10;;
47337;SDS011;33069;51.970;5.892;2023-04-24T02:37:02;62.20;;;39.65;;
47337;SDS011;33069;51.970;5.892;2023-04-24T02:39:27;63.50;;;41.60;;
47337;SDS011;33069;51.970;5.892;2023-04-24T02:41:53;68.95;;;43.67;;
47337;SDS011;33069;51.970;5.892;2023-04-24T02:44:19;67.80;;;43.88;;
47337;SDS011;33069;51.970;5.892;2023-04-24T02:46:44;58.33;;;39.50;;
47337;SDS011;33069;51.970;5.892;2023-04-24T02:49:10;68.00;;;40.78;;
47337;SDS011;33069;51.970;5.892;2023-04-24T02:51:45;72.53;;;45.65;;
47337;SDS011;33069;51.970;5.892;2023-04-24T02:54:11;95.65;;;48.83;;
47337;SDS011;33069;51.970;5.892;2023-04-24T02:56:37;59.05;;;37.25;;
47337;SDS011;33069;51.970;5.892;2023-04-24T02:59:03;60.85;;;37.15;;
47337;SDS011;33069;51.970;5.892;2023-04-24T03:01:29;68.00;;;40.85;;
47337;SDS011;33069;51.970;5.892;2023-04-24T03:03:54;77.28;;;42.65;;
47337;SDS011;33069;51.970;5.892;2023-04-24T03:06:20;71.97;;;42.40;;
47337;SDS011;33069;51.970;5.892;2023-04-24T03:08:46;67.75;;;40.35;;
47337;SDS011;33069;51.970;5.892;2023-04-24T03:11:12;54.92;;;34.70;;
47337;SDS011;33069;51.970;5.892;2023-04-24T03:13:37;55.83;;;34.90;;
47337;SDS011;33069;51.970;5.892;2023-04-24T03:16:03;57.10;;;36.42;;
47337;SDS011;33069;51.970;5.892;2023-04-24T03:18:29;71.38;;;39.15;;
47337;SDS011;33069;51.970;5.892;2023-04-24T03:20:55;65.78;;;39.17;;
47337;SDS011;33069;51.970;5.892;2023-04-24T03:23:21;83.93;;;43.30;;
47337;SDS011;33069;51.970;5.892;2023-04-24T03:25:46;64.85;;;39.08;;
47337;SDS011;33069;51.970;5.892;2023-04-24T03:28:13;55.55;;;35.78;;
47337;SDS011;33069;51.970;5.892;2023-04-24T03:30:39;68.20;;;39.97;;
47337;SDS011;33069;51.970;5.892;2023-04-24T03:33:04;66.70;;;40.53;;
47337;SDS011;33069;51.970;5.892;2023-04-24T03:35:30;67.43;;;40.13;;
47337;SDS011;33069;51.970;5.892;2023-04-24T03:37:56;59.33;;;39.20;;
47337;SDS011;33069;51.970;5.892;2023-04-24T03:40:22;64.00;;;40.47;;
47337;SDS011;33069;51.970;5.892;2023-04-24T03:42:47;64.13;;;41.60;;
47337;SDS011;33069;51.970;5.892;2023-04-24T03:45:13;75.30;;;46.70;;
47337;SDS011;33069;51.970;5.892;2023-04-24T03:47:39;79.05;;;51.13;;
47337;SDS011;33069;51.970;5.892;2023-04-24T03:50:04;88.57;;;53.20;;
47337;SDS011;33069;51.970;5.892;2023-04-24T03:52:30;82.13;;;52.10;;
47337;SDS011;33069;51.970;5.892;2023-04-24T03:54:56;89.90;;;57.03;;
47337;SDS011;33069;51.970;5.892;2023-04-24T03:57:22;80.72;;;53.08;;
47337;SDS011;33069;51.970;5.892;2023-04-24T03:59:47;86.55;;;56.13;;
47337;SDS011;33069;51.970;5.892;2023-04-24T04:02:13;88.88;;;55.88;;
47337;SDS011;33069;51.970;5.892;2023-04-24T04:04:39;81.72;;;51.13;;
47337;SDS011;33069;51.970;5.892;2023-04-24T04:07:04;103.75;;;62.38;;
47337;SDS011;33069;51.970;5.892;2023-04-24T04:09:30;95.68;;;59.13;;
47337;SDS011;33069;51.970;5.892;2023-04-24T04:11:56;91.63;;;57.10;;
47337;SDS011;33069;51.970;5.892;2023-04-24T04:14:22;86.38;;;56.35;;
47337;SDS011;33069;51.970;5.892;2023-04-24T04:16:48;84.80;;;52.70;;
47337;SDS011;33069;51.970;5.892;2023-04-24T04:19:14;90.03;;;56.10;;
47337;SDS011;33069;51.970;5.892;2023-04-24T04:21:40;75.55;;;48.90;;
47337;SDS011;33069;51.970;5.892;2023-04-24T04:24:05;81.55;;;51.58;;
47337;SDS011;33069;51.970;5.892;2023-04-24T04:26:32;70.30;;;48.47;;
47337;SDS011;33069;51.970;5.892;2023-04-24T04:28:58;85.47;;;52.22;;
47337;SDS011;33069;51.970;5.892;2023-04-24T04:31:25;89.32;;;56.70;;
47337;SDS011;33069;51.970;5.892;2023-04-24T04:33:51;75.35;;;51.13;;
47337;SDS011;33069;51.970;5.892;2023-04-24T04:36:17;68.18;;;47.88;;
47337;SDS011;33069;51.970;5.892;2023-04-24T04:38:42;78.22;;;48.88;;
47337;SDS011;33069;51.970;5.892;2023-04-24T04:41:09;68.65;;;46.78;;
47337;SDS011;33069;51.970;5.892;2023-04-24T04:43:35;85.50;;;51.72;;
47337;SDS011;33069;51.970;5.892;2023-04-24T04:46:03;65.78;;;43.97;;
47337;SDS011;33069;51.970;5.892;2023-04-24T04:48:29;78.82;;;49.45;;
47337;SDS011;33069;51.970;5.892;2023-04-24T04:50:56;62.45;;;43.38;;
47337;SDS011;33069;51.970;5.892;2023-04-24T04:53:23;66.30;;;44.40;;
47337;SDS011;33069;51.970;5.892;2023-04-24T04:55:48;69.20;;;46.90;;
47337;SDS011;33069;51.970;5.892;2023-04-24T04:58:14;67.95;;;43.78;;
47337;SDS011;33069;51.970;5.892;2023-04-24T05:00:40;75.30;;;47.70;;
47337;SDS011;33069;51.970;5.892;2023-04-24T05:03:06;64.85;;;42.42;;
47337;SDS011;33069;51.970;5.892;2023-04-24T05:05:32;75.97;;;46.70;;
47337;SDS011;33069;51.970;5.892;2023-04-24T05:07:57;71.22;;;46.15;;
47337;SDS011;33069;51.970;5.892;2023-04-24T05:10:23;83.72;;;48.83;;
47337;SDS011;33069;51.970;5.892;2023-04-24T05:12:49;79.05;;;47.30;;
47337;SDS011;33069;51.970;5.892;2023-04-24T05:15:15;69.28;;;45.28;;
47337;SDS011;33069;51.970;5.892;2023-04-24T05:17:40;59.95;;;40.13;;
47337;SDS011;33069;51.970;5.892;2023-04-24T05:20:06;72.72;;;42.17;;
47337;SDS011;33069;51.970;5.892;2023-04-24T05:22:32;62.20;;;40.45;;
47337;SDS011;33069;51.970;5.892;2023-04-24T05:24:58;52.30;;;34.28;;
47337;SDS011;33069;51.970;5.892;2023-04-24T05:27:24;69.75;;;43.00;;
47337;SDS011;33069;51.970;5.892;2023-04-24T05:29:50;69.32;;;43.70;;
47337;SDS011;33069;51.970;5.892;2023-04-24T05:32:16;79.53;;;46.00;;
47337;SDS011;33069;51.970;5.892;2023-04-24T05:34:41;60.83;;;40.05;;
47337;SDS011;33069;51.970;5.892;2023-04-24T05:37:07;70.03;;;39.83;;
47337;SDS011;33069;51.970;5.892;2023-04-24T05:39:35;54.70;;;36.08;;
47337;SDS011;33069;51.970;5.892;2023-04-24T05:42:01;56.90;;;36.10;;
47337;SDS011;33069;51.970;5.892;2023-04-24T05:44:26;49.10;;;31.63;;
47337;SDS011;33069;51.970;5.892;2023-04-24T05:46:52;52.53;;;34.85;;
47337;SDS011;33069;51.970;5.892;2023-04-24T05:49:20;62.72;;;38.75;;
47337;SDS011;33069;51.970;5.892;2023-04-24T05:51:45;66.25;;;37.50;;
47337;SDS011;33069;51.970;5.892;2023-04-24T05:54:11;46.50;;;30.38;;
47337;SDS011;33069;51.970;5.892;2023-04-24T05:56:37;57.63;;;33.33;;
47337;SDS011;33069;51.970;5.892;2023-04-24T05:59:03;43.60;;;28.30;;
47337;SDS011;33069;51.970;5.892;2023-04-24T06:01:29;39.30;;;28.10;;
47337;SDS011;33069;51.970;5.892;2023-04-24T06:03:56;50.55;;;32.58;;
47337;SDS011;33069;51.970;5.892;2023-04-24T06:06:22;39.50;;;26.75;;
47337;SDS011;33069;51.970;5.892;2023-04-24T06:08:49;42.85;;;26.30;;
47337;SDS011;33069;51.970;5.892;2023-04-24T06:11:14;64.93;;;32.75;;
47337;SDS011;33069;51.970;5.892;2023-04-24T06:13:40;67.07;;;35.30;;
47337;SDS011;33069;51.970;5.892;2023-04-24T06:16:06;42.38;;;28.55;;
47337;SDS011;33069;51.970;5.892;2023-04-24T06:18:32;37.30;;;25.17;;
47337;SDS011;33069;51.970;5.892;2023-04-24T06:20:58;42.97;;;29.02;;
47337;SDS011;33069;51.970;5.892;2023-04-24T06:23:23;42.85;;;25.92;;
47337;SDS011;33069;51.970;5.892;2023-04-24T06:25:49;35.20;;;24.02;;
47337;SDS011;33069;51.970;5.892;2023-04-24T06:28:15;40.25;;;26.65;;
47337;SDS011;33069;51.970;5.892;2023-04-24T06:30:40;34.40;;;24.05;;
47337;SDS011;33069;51.970;5.892;2023-04-24T06:33:06;27.73;;;21.15;;
47337;SDS011;33069;51.970;5.892;2023-04-24T06:35:32;30.45;;;21.25;;
47337;SDS011;33069;51.970;5.892;2023-04-24T06:37:58;33.90;;;23.50;;
47337;SDS011;33069;51.970;5.892;2023-04-24T06:40:23;34.15;;;23.98;;
47337;SDS011;33069;51.970;5.892;2023-04-24T06:42:49;20.02;;;14.27;;
47337;SDS011;33069;51.970;5.892;2023-04-24T06:45:15;22.15;;;16.95;;
47337;SDS011;33069;51.970;5.892;2023-04-24T06:47:41;25.38;;;17.70;;
47337;SDS011;33069;51.970;5.892;2023-04-24T06:50:07;27.63;;;18.05;;
47337;SDS011;33069;51.970;5.892;2023-04-24T06:52:33;23.05;;;17.25;;
47337;SDS011;33069;51.970;5.892;2023-04-24T06:55:02;26.27;;;17.55;;
47337;SDS011;33069;51.970;5.892;2023-04-24T06:57:28;14.38;;;10.88;;
47337;SDS011;33069;51.970;5.892;2023-04-24T06:59:54;20.40;;;14.35;;
47337;SDS011;33069;51.970;5.892;2023-04-24T07:02:20;15.20;;;12.60;;
47337;SDS011;33069;51.970;5.892;2023-04-24T07:04:46;16.02;;;11.10;;
47337;SDS011;33069;51.970;5.892;2023-04-24T07:07:12;15.13;;;11.00;;
47337;SDS011;33069;51.970;5.892;2023-04-24T07:09:41;14.82;;;9.68;;
47337;SDS011;33069;51.970;5.892;2023-04-24T07:12:08;17.00;;;10.50;;
47337;SDS011;33069;51.970;5.892;2023-04-24T07:14:35;12.98;;;9.02;;
47337;SDS011;33069;51.970;5.892;2023-04-24T07:17:05;10.32;;;7.57;;
47337;SDS011;33069;51.970;5.892;2023-04-24T07:19:31;11.85;;;8.80;;
47337;SDS011;33069;51.970;5.892;2023-04-24T07:21:59;11.85;;;7.53;;
47337;SDS011;33069;51.970;5.892;2023-04-24T07:24:25;15.25;;;8.75;;
47337;SDS011;33069;51.970;5.892;2023-04-24T07:26:51;8.63;;;6.40;;
47337;SDS011;33069;51.970;5.892;2023-04-24T07:29:17;6.30;;;4.63;;
47337;SDS011;33069;51.970;5.892;2023-04-24T07:31:44;7.30;;;3.72;;
47337;SDS011;33069;51.970;5.892;2023-04-24T07:34:10;5.28;;;2.83;;
47337;SDS011;33069;51.970;5.892;2023-04-24T07:36:36;5.68;;;3.55;;
47337;SDS011;33069;51.970;5.892;2023-04-24T07:39:03;13.48;;;12.48;;
47337;SDS011;33069;51.970;5.892;2023-04-24T07:41:29;6.22;;;4.53;;
47337;SDS011;33069;51.970;5.892;2023-04-24T07:43:55;8.57;;;6.00;;
47337;SDS011;33069;51.970;5.892;2023-04-24T07:46:21;8.63;;;6.80;;
47337;SDS011;33069;51.970;5.892;2023-04-24T07:48:48;13.23;;;7.50;;
47337;SDS011;33069;51.970;5.892;2023-04-24T07:51:14;13.48;;;9.68;;
47337;SDS011;33069;51.970;5.892;2023-04-24T07:53:40;16.75;;;10.50;;
47337;SDS011;33069;51.970;5.892;2023-04-24T07:56:06;23.73;;;19.63;;
47337;SDS011;33069;51.970;5.892;2023-04-24T07:58:32;21.25;;;13.73;;
47337;SDS011;33069;51.970;5.892;2023-04-24T08:00:59;23.77;;;21.40;;
47337;SDS011;33069;51.970;5.892;2023-04-24T08:03:25;21.08;;;17.00;;
47337;SDS011;33069;51.970;5.892;2023-04-24T08:05:50;27.60;;;17.15;;
47337;SDS011;33069;51.970;5.892;2023-04-24T08:08:16;25.90;;;17.75;;
47337;SDS011;33069;51.970;5.892;2023-04-24T08:10:43;31.95;;;22.88;;
47337;SDS011;33069;51.970;5.892;2023-04-24T08:13:08;28.45;;;20.15;;
47337;SDS011;33069;51.970;5.892;2023-04-24T08:15:36;25.98;;;21.60;;
47337;SDS011;33069;51.970;5.892;2023-04-24T08:18:02;30.75;;;21.25;;
47337;SDS011;33069;51.970;5.892;2023-04-24T08:20:28;30.10;;;19.85;;
47337;SDS011;33069;51.970;5.892;2023-04-24T08:22:53;27.05;;;19.23;;
47337;SDS011;33069;51.970;5.892;2023-04-24T08:25:20;26.67;;;17.27;;
47337;SDS011;33069;51.970;5.892;2023-04-24T08:27:48;23.38;;;16.45;;
47337;SDS011;33069;51.970;5.892;2023-04-24T08:30:13;32.22;;;17.52;;
47337;SDS011;33069;51.970;5.892;2023-04-24T08:32:39;38.75;;;32.53;;
47337;SDS011;33069;51.970;5.892;2023-04-24T08:35:05;34.90;;;19.70;;
47337;SDS011;33069;51.970;5.892;2023-04-24T08:37:34;25.38;;;17.20;;
47337;SDS011;33069;51.970;5.892;2023-04-24T08:40:00;27.40;;;19.77;;
47337;SDS011;33069;51.970;5.892;2023-04-24T08:42:30;27.25;;;22.75;;
47337;SDS011;33069;51.970;5.892;2023-04-24T08:44:58;30.92;;;19.25;;
47337;SDS011;33069;51.970;5.892;2023-04-24T08:47:24;31.00;;;19.88;;
47337;SDS011;33069;51.970;5.892;2023-04-24T08:49:51;33.33;;;20.60;;
47337;SDS011;33069;51.970;5.892;2023-04-24T08:52:19;32.08;;;22.95;;
47337;SDS011;33069;51.970;5.892;2023-04-24T08:54:46;29.90;;;19.08;;
47337;SDS011;33069;51.970;5.892;2023-04-24T08:57:14;38.80;;;20.85;;
47337;SDS011;33069;51.970;5.892;2023-04-24T08:59:40;30.67;;;19.55;;
47337;SDS011;33069;51.970;5.892;2023-04-24T09:02:06;39.33;;;21.65;;
47337;SDS011;33069;51.970;5.892;2023-04-24T09:04:35;35.50;;;19.60;;
47337;SDS011;33069;51.970;5.892;2023-04-24T09:07:02;20.80;;;11.77;;
47337;SDS011;33069;51.970;5.892;2023-04-24T09:09:30;16.83;;;12.25;;
47337;SDS011;33069;51.970;5.892;2023-04-24T09:11:59;26.83;;;17.77;;
47337;SDS011;33069;51.970;5.892;2023-04-24T09:14:26;20.58;;;18.48;;
47337;SDS011;33069;51.970;5.892;2023-04-24T09:16:53;26.23;;;12.13;;
47337;SDS011;33069;51.970;5.892;2023-04-24T09:19:18;23.58;;;9.50;;
47337;SDS011;33069;51.970;5.892;2023-04-24T09:21:46;19.23;;;7.22;;
47337;SDS011;33069;51.970;5.892;2023-04-24T09:24:19;23.17;;;9.23;;
47337;SDS011;33069;51.970;5.892;2023-04-24T09:26:47;23.58;;;9.68;;
47337;SDS011;33069;51.970;5.892;2023-04-24T09:29:15;17.55;;;7.15;;
47337;SDS011;33069;51.970;5.892;2023-04-24T09:31:41;44.97;;;41.05;;
47337;SDS011;33069;51.970;5.892;2023-04-24T09:34:08;21.40;;;6.25;;
47337;SDS011;33069;51.970;5.892;2023-04-24T09:36:38;26.35;;;9.82;;
47337;SDS011;33069;51.970;5.892;2023-04-24T09:39:11;25.23;;;16.00;;
47337;SDS011;33069;51.970;5.892;2023-04-24T09:41:50;79.00;;;71.68;;
47337;SDS011;33069;51.970;5.892;2023-04-24T09:44:21;26.25;;;18.13;;
47337;SDS011;33069;51.970;5.892;2023-04-24T09:46:52;60.20;;;55.28;;
47337;SDS011;33069;51.970;5.892;2023-04-24T09:49:23;14.60;;;5.53;;
47337;SDS011;33069;51.970;5.892;2023-04-24T09:52:03;17.05;;;4.72;;
47337;SDS011;33069;51.970;5.892;2023-04-24T09:54:30;15.68;;;4.82;;
47337;SDS011;33069;51.970;5.892;2023-04-24T09:56:56;16.92;;;5.43;;
47337;SDS011;33069;51.970;5.892;2023-04-24T09:59:22;19.30;;;5.50;;
47337;SDS011;33069;51.970;5.892;2023-04-24T10:01:48;23.55;;;6.72;;
47337;SDS011;33069;51.970;5.892;2023-04-24T10:04:15;12.95;;;4.43;;
47337;SDS011;33069;51.970;5.892;2023-04-24T10:06:42;17.70;;;5.20;;
47337;SDS011;33069;51.970;5.892;2023-04-24T10:09:08;22.33;;;11.32;;
47337;SDS011;33069;51.970;5.892;2023-04-24T10:11:36;17.75;;;4.75;;
47337;SDS011;33069;51.970;5.892;2023-04-24T10:14:03;18.70;;;15.57;;
47337;SDS011;33069;51.970;5.892;2023-04-24T10:16:29;15.25;;;5.57;;
47337;SDS011;33069;51.970;5.892;2023-04-24T10:18:56;17.77;;;4.47;;
47337;SDS011;33069;51.970;5.892;2023-04-24T10:21:25;18.90;;;7.38;;
47337;SDS011;33069;51.970;5.892;2023-04-24T10:23:52;15.68;;;5.13;;
47337;SDS011;33069;51.970;5.892;2023-04-24T10:26:18;13.77;;;5.07;;
47337;SDS011;33069;51.970;5.892;2023-04-24T10:28:46;14.93;;;4.32;;
47337;SDS011;33069;51.970;5.892;2023-04-24T10:31:13;17.50;;;4.80;;
47337;SDS011;33069;51.970;5.892;2023-04-24T10:33:40;16.25;;;4.32;;
47337;SDS011;33069;51.970;5.892;2023-04-24T10:36:07;18.40;;;6.63;;
47337;SDS011;33069;51.970;5.892;2023-04-24T10:38:35;15.18;;;5.63;;
47337;SDS011;33069;51.970;5.892;2023-04-24T10:41:07;16.70;;;6.78;;
47337;SDS011;33069;51.970;5.892;2023-04-24T10:43:41;12.75;;;5.50;;
47337;SDS011;33069;51.970;5.892;2023-04-24T10:46:08;15.48;;;9.13;;
47337;SDS011;33069;51.970;5.892;2023-04-24T10:48:35;15.13;;;6.75;;
47337;SDS011;33069;51.970;5.892;2023-04-24T10:51:10;18.48;;;10.93;;
47337;SDS011;33069;51.970;5.892;2023-04-24T10:53:38;8.77;;;5.65;;
47337;SDS011;33069;51.970;5.892;2023-04-24T10:58:42;9.80;;;6.55;;
47337;SDS011;33069;51.970;5.892;2023-04-24T11:03:59;13.60;;;6.30;;
47337;SDS011;33069;51.970;5.892;2023-04-24T11:09:05;11.23;;;5.93;;
47337;SDS011;33069;51.970;5.892;2023-04-24T11:11:33;11.27;;;7.25;;
47337;SDS011;33069;51.970;5.892;2023-04-24T11:14:01;11.50;;;4.15;;
47337;SDS011;33069;51.970;5.892;2023-04-24T11:16:34;8.00;;;4.45;;
47337;SDS011;33069;51.970;5.892;2023-04-24T11:21:40;11.07;;;5.20;;
47337;SDS011;33069;51.970;5.892;2023-04-24T11:24:23;10.73;;;4.32;;
47337;SDS011;33069;51.970;5.892;2023-04-24T11:30:07;11.20;;;4.30;;
47337;SDS011;33069;51.970;5.892;2023-04-24T11:37:36;5.13;;;4.30;;
47337;SDS011;33069;51.970;5.892;2023-04-24T11:40:02;5.93;;;4.55;;
47337;SDS011;33069;51.970;5.892;2023-04-24T11:42:39;9.77;;;3.40;;
47337;SDS011;33069;51.970;5.892;2023-04-24T11:45:07;6.10;;;4.53;;
47337;SDS011;33069;51.970;5.892;2023-04-24T11:47:35;5.60;;;4.10;;
47337;SDS011;33069;51.970;5.892;2023-04-24T11:50:01;29.42;;;27.50;;
47337;SDS011;33069;51.970;5.892;2023-04-24T11:52:29;4.70;;;3.53;;
47337;SDS011;33069;51.970;5.892;2023-04-24T11:54:55;90.20;;;83.80;;
47337;SDS011;33069;51.970;5.892;2023-04-24T11:57:22;8.45;;;4.60;;
47337;SDS011;33069;51.970;5.892;2023-04-24T11:59:52;9.13;;;4.00;;
47337;SDS011;33069;51.970;5.892;2023-04-24T12:04:54;6.40;;;3.75;;
47337;SDS011;33069;51.970;5.892;2023-04-24T12:07:20;5.38;;;3.55;;
47337;SDS011;33069;51.970;5.892;2023-04-24T12:09:47;5.50;;;5.00;;
47337;SDS011;33069;51.970;5.892;2023-04-24T12:12:23;9.38;;;5.57;;
47337;SDS011;33069;51.970;5.892;2023-04-24T12:14:57;4.93;;;2.00;;
47337;SDS011;33069;51.970;5.892;2023-04-24T12:17:33;6.72;;;2.78;;
47337;SDS011;33069;51.970;5.892;2023-04-24T12:20:00;5.78;;;2.92;;
47337;SDS011;33069;51.970;5.892;2023-04-24T12:22:28;7.63;;;5.05;;
47337;SDS011;33069;51.970;5.892;2023-04-24T12:25:09;6.68;;;2.70;;
47337;SDS011;33069;51.970;5.892;2023-04-24T12:27:35;7.10;;;2.92;;
47337;SDS011;33069;51.970;5.892;2023-04-24T12:30:02;6.93;;;3.70;;
47337;SDS011;33069;51.970;5.892;2023-04-24T12:32:30;8.20;;;3.22;;
47337;SDS011;33069;51.970;5.892;2023-04-24T12:34:56;5.53;;;2.78;;
47337;SDS011;33069;51.970;5.892;2023-04-24T12:37:26;5.70;;;2.90;;
47337;SDS011;33069;51.970;5.892;2023-04-24T12:40:07;7.25;;;3.10;;
47337;SDS011;33069;51.970;5.892;2023-04-24T12:42:44;8.23;;;3.50;;
47337;SDS011;33069;51.970;5.892;2023-04-24T12:45:11;7.80;;;3.47;;
47337;SDS011;33069;51.970;5.892;2023-04-24T12:47:38;7.40;;;4.05;;
47337;SDS011;33069;51.970;5.892;2023-04-24T12:50:05;7.75;;;3.90;;
47337;SDS011;33069;51.970;5.892;2023-04-24T12:52:32;7.28;;;3.47;;
47337;SDS011;33069;51.970;5.892;2023-04-24T12:54:58;8.85;;;4.38;;
47337;SDS011;33069;51.970;5.892;2023-04-24T12:57:26;9.75;;;2.85;;
47337;SDS011;33069;51.970;5.892;2023-04-24T12:59:57;5.00;;;3.47;;
47337;SDS011;33069;51.970;5.892;2023-04-24T13:02:32;5.20;;;3.60;;
47337;SDS011;33069;51.970;5.892;2023-04-24T13:04:59;8.95;;;3.75;;
47337;SDS011;33069;51.970;5.892;2023-04-24T13:07:25;7.05;;;3.55;;
47337;SDS011;33069;51.970;5.892;2023-04-24T13:09:52;10.07;;;3.95;;
47337;SDS011;33069;51.970;5.892;2023-04-24T13:12:19;11.48;;;3.22;;
47337;SDS011;33069;51.970;5.892;2023-04-24T13:14:45;6.53;;;4.30;;
47337;SDS011;33069;51.970;5.892;2023-04-24T13:17:11;7.25;;;4.80;;
47337;SDS011;33069;51.970;5.892;2023-04-24T13:19:41;4.78;;;3.40;;
47337;SDS011;33069;51.970;5.892;2023-04-24T13:22:11;17.20;;;12.38;;
47337;SDS011;33069;51.970;5.892;2023-04-24T13:24:38;7.45;;;4.88;;
47337;SDS011;33069;51.970;5.892;2023-04-24T13:27:07;9.63;;;3.83;;
47337;SDS011;33069;51.970;5.892;2023-04-24T13:29:34;13.07;;;3.85;;
47337;SDS011;33069;51.970;5.892;2023-04-24T13:31:59;14.35;;;6.07;;
47337;SDS011;33069;51.970;5.892;2023-04-24T13:34:25;10.95;;;4.00;;
47337;SDS011;33069;51.970;5.892;2023-04-24T13:36:53;9.20;;;3.90;;
47337;SDS011;33069;51.970;5.892;2023-04-24T13:39:21;10.82;;;5.05;;
47337;SDS011;33069;51.970;5.892;2023-04-24T13:41:47;11.70;;;4.47;;
47337;SDS011;33069;51.970;5.892;2023-04-24T13:44:15;25.05;;;22.90;;
47337;SDS011;33069;51.970;5.892;2023-04-24T13:46:42;7.28;;;5.28;;
47337;SDS011;33069;51.970;5.892;2023-04-24T13:49:10;13.82;;;4.93;;
47337;SDS011;33069;51.970;5.892;2023-04-24T13:51:37;11.13;;;5.20;;
47337;SDS011;33069;51.970;5.892;2023-04-24T13:54:03;12.77;;;4.95;;
47337;SDS011;33069;51.970;5.892;2023-04-24T13:56:29;9.65;;;7.15;;
47337;SDS011;33069;51.970;5.892;2023-04-24T13:58:55;11.70;;;5.38;;
47337;SDS011;33069;51.970;5.892;2023-04-24T14:01:21;14.50;;;6.22;;
47337;SDS011;33069;51.970;5.892;2023-04-24T14:03:50;16.60;;;9.02;;
47337;SDS011;33069;51.970;5.892;2023-04-24T14:06:16;7.22;;;4.65;;
47337;SDS011;33069;51.970;5.892;2023-04-24T14:08:43;13.88;;;12.32;;
47337;SDS011;33069;51.970;5.892;2023-04-24T14:11:09;9.88;;;6.50;;
47337;SDS011;33069;51.970;5.892;2023-04-24T14:13:35;10.82;;;7.80;;
47337;SDS011;33069;51.970;5.892;2023-04-24T14:16:02;56.47;;;51.97;;
47337;SDS011;33069;51.970;5.892;2023-04-24T14:18:29;31.73;;;29.00;;
47337;SDS011;33069;51.970;5.892;2023-04-24T14:20:55;12.75;;;6.10;;
47337;SDS011;33069;51.970;5.892;2023-04-24T14:23:21;13.63;;;5.88;;
47337;SDS011;33069;51.970;5.892;2023-04-24T14:25:46;18.30;;;8.00;;
47337;SDS011;33069;51.970;5.892;2023-04-24T14:28:16;10.98;;;6.70;;
47337;SDS011;33069;51.970;5.892;2023-04-24T14:30:45;11.65;;;6.55;;
47337;SDS011;33069;51.970;5.892;2023-04-24T14:33:12;13.52;;;6.78;;
47337;SDS011;33069;51.970;5.892;2023-04-24T14:35:38;13.68;;;7.70;;
47337;SDS011;33069;51.970;5.892;2023-04-24T14:38:05;11.63;;;6.70;;
47337;SDS011;33069;51.970;5.892;2023-04-24T14:40:31;12.52;;;5.50;;
47337;SDS011;33069;51.970;5.892;2023-04-24T14:42:57;9.30;;;5.78;;
47337;SDS011;33069;51.970;5.892;2023-04-24T14:45:23;12.43;;;7.30;;
47337;SDS011;33069;51.970;5.892;2023-04-24T14:47:50;9.55;;;6.30;;
47337;SDS011;33069;51.970;5.892;2023-04-24T14:50:16;10.18;;;6.47;;
47337;SDS011;33069;51.970;5.892;2023-04-24T14:52:41;11.00;;;6.93;;